Time;durP1;ratioP1;P1;durP2;ratioP2;P2;SDS_P1;SDS_P2;PMS_P1;PMS_P2;Temp;Humidity;BMP_temperature;BMP_pressure;BME280_temperature;BME280_humidity;BME280_pressure;Samples;Min_cycle;Max_cycle;Signal;HPM_P1;HPM_P2
2023/10/03 00:02:33;;;;;;;59.25;31.42;;;;;;;23.01;nan;98296.38;4871071;29;20052;-64
2023/10/03 00:05:03;;;;;;;54.00;30.42;;;;;;;22.97;nan;98294.53;4870928;29;20049;-64
2023/10/03 00:07:32;;;;;;;51.20;30.70;;;;;;;23.03;nan;98293.38;4871219;29;20057;-64
2023/10/03 00:10:02;;;;;;;56.28;30.85;;;;;;;23.00;nan;98302.84;4870528;29;20109;-66
2023/10/03 00:12:32;;;;;;;56.30;31.17;;;;;;;22.92;nan;98300.78;4871187;29;20073;-65
2023/10/03 00:15:02;;;;;;;54.97;30.38;;;;;;;22.94;nan;98301.28;4870997;29;20053;-65
2023/10/03 00:17:31;;;;;;;66.43;34.55;;;;;;;22.94;nan;98303.16;4871325;29;20095;-65
2023/10/03 00:20:04;;;;;;;58.10;33.30;;;;;;;22.86;nan;98298.38;4871081;29;20061;-65
2023/10/03 00:22:34;;;;;;;58.10;33.42;;;;;;;22.76;nan;98304.66;4874054;29;20584;-65
2023/10/03 00:25:16;;;;;;;52.22;31.88;;;;;;;22.76;nan;98307.34;4874284;29;20057;-65
2023/10/03 00:27:49;;;;;;;66.07;34.42;;;;;;;22.76;nan;98305.47;4874846;29;20053;-65
2023/10/03 00:30:20;;;;;;;57.67;33.65;;;;;;;22.72;nan;98307.09;4874088;29;20053;-65
2023/10/03 00:32:49;;;;;;;48.95;32.92;;;;;;;22.72;nan;98317.09;4873622;29;20449;-65
2023/10/03 00:35:20;;;;;;;55.20;33.22;;;;;;;22.67;nan;98317.09;4873564;29;20061;-65
2023/10/03 00:37:51;;;;;;;58.45;33.55;;;;;;;22.71;nan;98318.19;4873874;29;20152;-65
2023/10/03 00:42:59;;;;;;;63.53;35.20;;;;;;;22.68;nan;98316.00;4873505;29;20057;-65
2023/10/03 00:45:31;;;;;;;62.17;35.50;;;;;;;22.66;nan;98318.22;4873433;29;20056;-65
2023/10/03 00:48:08;;;;;;;64.10;35.08;;;;;;;22.68;nan;98318.72;4873771;29;20148;-65
2023/10/03 00:50:39;;;;;;;62.85;35.40;;;;;;;22.63;nan;98322.25;4872929;29;20545;-65
2023/10/03 00:53:09;;;;;;;60.72;35.85;;;;;;;22.58;nan;98330.38;4872484;29;20049;-65
2023/10/03 00:55:39;;;;;;;57.45;34.33;;;;;;;22.59;nan;98334.69;4873816;29;20073;-65
2023/10/03 01:00:54;;;;;;;56.33;34.80;;;;;;;22.57;nan;98333.38;4873179;29;20457;-65
2023/10/03 01:03:37;;;;;;;58.30;33.95;;;;;;;22.63;nan;98334.94;4870234;29;20063;-65
2023/10/03 01:06:12;;;;;;;57.38;33.75;;;;;;;22.67;nan;98330.59;4873026;29;20125;-65
2023/10/03 01:08:46;;;;;;;47.53;34.20;;;;;;;22.64;nan;98339.25;4872392;29;20497;-65
2023/10/03 01:11:20;;;;;;;54.75;34.13;;;;;;;22.62;nan;98336.03;4874979;29;20052;-65
2023/10/03 01:13:58;;;;;;;58.30;33.85;;;;;;;22.58;nan;98337.66;4879731;29;20104;-62
2023/10/03 01:21:46;;;;;;;64.47;34.10;;;;;;;22.69;nan;98350.03;4874713;29;20056;-65
2023/10/03 01:24:20;;;;;;;56.63;34.20;;;;;;;22.65;nan;98357.09;4865624;29;20156;-64
2023/10/03 01:26:53;;;;;;;59.60;34.35;;;;;;;22.68;nan;98361.91;4882968;29;20056;-65
2023/10/03 01:29:23;;;;;;;61.53;33.58;;;;;;;22.79;nan;98356.19;4881363;29;20052;-66
2023/10/03 01:31:53;;;;;;;57.55;34.03;;;;;;;22.81;nan;98369.44;4877794;29;20061;-65
2023/10/03 01:34:22;;;;;;;54.28;33.83;;;;;;;22.83;nan;98375.38;4878888;29;20052;-65
2023/10/03 01:36:52;;;;;;;55.17;34.38;;;;;;;22.88;nan;98369.91;4883603;29;20045;-66
2023/10/03 01:39:23;;;;;;;57.15;34.65;;;;;;;22.89;nan;98370.72;4880534;29;20064;-65
2023/10/03 01:41:52;;;;;;;54.70;34.53;;;;;;;23.03;nan;98379.81;4880810;29;20056;-65
2023/10/03 01:44:22;;;;;;;58.05;35.67;;;;;;;23.17;nan;98386.19;4879780;29;20108;-64
2023/10/03 01:46:51;;;;;;;58.63;33.50;;;;;;;23.18;nan;98391.34;4871704;29;20497;-64
2023/10/03 01:49:21;;;;;;;50.70;32.42;;;;;;;23.32;nan;98390.69;4882578;29;20056;-65
2023/10/03 01:51:54;;;;;;;56.65;36.53;;;;;;;23.40;nan;98395.50;4880348;29;20160;-66
2023/10/03 01:54:23;;;;;;;55.58;34.75;;;;;;;23.40;nan;98388.19;4879929;29;20136;-65
2023/10/03 01:56:54;;;;;;;60.67;35.90;;;;;;;23.51;nan;98407.84;4880931;29;20059;-65
2023/10/03 01:59:24;;;;;;;56.42;35.20;;;;;;;23.54;nan;98393.78;4871426;29;20136;-65
2023/10/03 02:01:53;;;;;;;62.85;35.03;;;;;;;23.53;nan;98397.56;4881016;29;20053;-66
2023/10/03 02:04:28;;;;;;;75.50;38.60;;;;;;;23.56;nan;98397.81;4880083;29;20064;-65
2023/10/03 02:06:58;;;;;;;73.28;36.78;;;;;;;23.69;nan;98394.44;4881017;29;20155;-65
2023/10/03 02:09:27;;;;;;;68.43;37.05;;;;;;;23.80;nan;98403.28;4882283;29;20667;-65
2023/10/03 02:11:59;;;;;;;66.55;36.17;;;;;;;23.82;nan;98395.66;4873674;29;20049;-65
2023/10/03 02:14:30;;;;;;;67.97;36.05;;;;;;;23.98;nan;98399.03;4870768;29;20049;-65
2023/10/03 02:16:59;;;;;;;67.18;38.50;;;;;;;24.07;nan;98408.13;4879648;29;20056;-65
2023/10/03 02:19:29;;;;;;;65.10;39.40;;;;;;;24.04;nan;98412.22;4886573;29;20057;-65
2023/10/03 02:22:01;;;;;;;73.85;39.80;;;;;;;24.04;nan;98404.09;4878902;29;20048;-65
2023/10/03 02:24:31;;;;;;;69.30;39.97;;;;;;;24.15;nan;98413.75;4882009;29;20052;-65
2023/10/03 02:27:00;;;;;;;73.20;42.10;;;;;;;24.19;nan;98426.69;4871668;29;20049;-65
2023/10/03 02:29:31;;;;;;;70.70;39.60;;;;;;;24.36;nan;98429.75;4878746;29;20537;-66
2023/10/03 02:32:02;;;;;;;70.60;39.85;;;;;;;24.41;nan;98429.69;4878688;29;20754;-65
2023/10/03 02:34:33;;;;;;;72.45;39.88;;;;;;;24.50;nan;98439.59;4881833;29;20048;-65
2023/10/03 02:37:03;;;;;;;70.13;42.25;;;;;;;24.63;nan;98435.38;4870399;29;20129;-65
2023/10/03 02:39:39;;;;;;;63.20;41.63;;;;;;;24.71;nan;98439.34;4876772;29;20446;-65
2023/10/03 02:42:09;;;;;;;76.22;43.42;;;;;;;24.81;nan;98445.44;4881120;29;20048;-65
2023/10/03 02:44:39;;;;;;;75.90;43.58;;;;;;;24.97;nan;98451.50;4872625;29;20144;-65
2023/10/03 02:47:09;;;;;;;83.32;47.92;;;;;;;25.14;nan;98445.59;4870573;29;20064;-65
2023/10/03 02:49:39;;;;;;;78.40;46.25;;;;;;;25.32;nan;98466.44;4872280;29;20057;-65
2023/10/03 02:52:10;;;;;;;82.15;49.38;;;;;;;25.29;nan;98462.41;4871213;29;20157;-65
2023/10/03 02:54:39;;;;;;;97.10;50.47;;;;;;;25.32;nan;98469.16;4885680;29;20056;-65
2023/10/03 02:57:09;;;;;;;81.75;51.00;;;;;;;25.48;nan;98468.66;4870642;29;20095;-65
2023/10/03 02:59:39;;;;;;;85.38;50.75;;;;;;;25.68;nan;98462.09;4869989;29;20045;-65
2023/10/03 03:02:11;;;;;;;104.63;56.38;;;;;;;25.67;nan;98457.78;4870981;29;20147;-65
2023/10/03 03:04:43;;;;;;;127.50;52.63;;;;;;;25.87;nan;98462.06;4859541;29;20057;-65
2023/10/03 03:07:13;;;;;;;109.72;56.47;;;;;;;26.01;nan;98467.53;4862632;29;20065;-65
2023/10/03 03:09:44;;;;;;;105.47;54.08;;;;;;;26.05;nan;98466.63;4870768;29;20057;-65
2023/10/03 03:12:13;;;;;;;98.43;54.80;;;;;;;26.19;nan;98470.19;4870982;29;20059;-65
2023/10/03 03:14:46;;;;;;;89.20;53.78;;;;;;;26.38;nan;98472.81;4883670;29;20056;-65
2023/10/03 03:17:18;;;;;;;90.13;52.60;;;;;;;26.50;nan;98478.59;4881484;29;20124;-65
2023/10/03 03:19:49;;;;;;;87.18;47.53;;;;;;;26.61;nan;98488.13;4889937;29;20091;-65
2023/10/03 03:22:21;;;;;;;83.28;44.75;;;;;;;26.71;nan;98492.56;4873481;29;20084;-65
2023/10/03 03:24:51;;;;;;;72.97;37.78;;;;;;;26.79;nan;98491.84;4872719;29;20060;-65
2023/10/03 03:27:25;;;;;;;63.75;31.88;;;;;;;26.80;nan;98496.19;4868469;29;20144;-65
2023/10/03 03:30:37;;;;;;;57.33;27.67;;;;;;;26.82;nan;98500.19;4871145;29;20061;-65
2023/10/03 03:32:47;;;;;;;55.38;26.52;;;;;;;26.88;nan;98497.41;4865916;29;20120;-65
2023/10/03 03:35:17;;;;;;;55.28;24.40;;;;;;;27.03;nan;98510.69;4870095;29;20550;-65
2023/10/03 03:37:47;;;;;;;44.92;23.60;;;;;;;27.11;nan;98509.97;4871357;29;20064;-65
2023/10/03 03:40:29;;;;;;;48.20;22.92;;;;;;;27.26;nan;98507.72;4874902;29;20060;-65
2023/10/03 03:43:03;;;;;;;56.47;22.58;;;;;;;27.45;nan;98512.19;4868778;29;20057;-65
2023/10/03 03:45:33;;;;;;;42.92;20.70;;;;;;;27.53;nan;98509.59;4871141;29;20112;-65
2023/10/03 03:48:02;;;;;;;43.60;22.10;;;;;;;27.62;nan;98502.28;4870332;29;20053;-66
2023/10/03 03:50:33;;;;;;;43.97;20.58;;;;;;;27.76;nan;98507.69;4870071;29;20189;-65
2023/10/03 03:53:03;;;;;;;39.08;18.25;;;;;;;27.86;nan;98501.19;4870640;29;20053;-65
2023/10/03 03:55:34;;;;;;;43.28;18.92;;;;;;;27.89;nan;98512.25;4870996;29;20052;-65
2023/10/03 03:58:12;;;;;;;38.00;18.35;;;;;;;28.06;nan;98501.47;4874165;29;20077;-65
2023/10/03 04:00:47;;;;;;;40.03;17.90;;;;;;;28.15;nan;98514.41;4873703;29;20129;-65
2023/10/03 04:03:18;;;;;;;34.10;18.85;;;;;;;28.37;nan;98506.97;4874981;29;20367;-67
2023/10/03 04:06:08;;;;;;;39.45;18.95;;;;;;;28.57;nan;98511.06;4884661;29;20152;-66
2023/10/03 04:08:38;;;;;;;41.83;18.35;;;;;;;28.75;nan;98511.97;4892646;29;20204;-65
2023/10/03 04:11:19;;;;;;;33.55;16.65;;;;;;;29.08;nan;98510.44;4889208;29;20047;-66
2023/10/03 04:13:55;;;;;;;40.70;17.88;;;;;;;29.50;nan;98521.78;4874469;29;20052;-66
2023/10/03 04:16:27;;;;;;;41.85;18.33;;;;;;;29.63;nan;98520.81;4874439;29;20057;-66
2023/10/03 04:18:57;;;;;;;38.95;18.45;;;;;;;30.07;nan;98525.13;4874443;29;20092;-66
2023/10/03 04:21:28;;;;;;;35.35;18.25;;;;;;;30.18;nan;98516.25;4878578;29;20644;-65
2023/10/03 04:23:59;;;;;;;31.13;17.17;;;;;;;30.39;nan;98534.72;4874155;29;20072;-66
2023/10/03 04:26:32;;;;;;;30.02;16.95;;;;;;;30.57;nan;98528.91;4874093;29;20060;-67
2023/10/03 04:29:02;;;;;;;35.25;17.10;;;;;;;30.90;nan;98529.06;4869317;29;20468;-67
2023/10/03 04:31:32;;;;;;;40.72;18.85;;;;;;;30.85;nan;98531.97;4869927;29;20059;-64
2023/10/03 04:34:04;;;;;;;49.80;17.17;;;;;;;31.45;nan;98528.09;4863648;29;20493;-65
2023/10/03 04:36:34;;;;;;;36.13;17.40;;;;;;;31.54;nan;98526.91;4862086;29;20046;-66
2023/10/03 04:39:04;;;;;;;33.33;17.60;;;;;;;31.94;nan;98523.69;4860017;29;20045;-66
2023/10/03 04:41:42;;;;;;;32.15;17.45;;;;;;;32.00;nan;98519.59;4867560;29;20056;-65
2023/10/03 04:44:16;;;;;;;38.38;19.45;;;;;;;31.63;nan;98522.19;4873071;29;20164;-66
2023/10/03 04:46:45;;;;;;;40.72;18.58;;;;;;;32.27;nan;98523.69;4873035;29;20049;-66
2023/10/03 04:49:15;;;;;;;37.33;18.50;;;;;;;32.25;nan;98526.00;4858778;29;20057;-66
2023/10/03 04:51:47;;;;;;;43.20;20.17;;;;;;;32.54;nan;98526.63;4867398;29;20052;-67
2023/10/03 04:54:17;;;;;;;41.67;18.38;;;;;;;32.91;nan;98515.69;4867775;29;20045;-67
2023/10/03 04:56:48;;;;;;;37.38;18.92;;;;;;;33.27;nan;98526.69;4871891;29;20072;-66
2023/10/03 04:59:19;;;;;;;41.55;19.25;;;;;;;32.95;nan;98522.91;4871667;29;20080;-67
2023/10/03 05:01:49;;;;;;;40.45;18.85;;;;;;;33.11;nan;98517.50;4871931;29;20069;-66
2023/10/03 05:04:19;;;;;;;32.63;16.80;;;;;;;33.38;nan;98524.22;4870199;29;20132;-66
2023/10/03 05:06:49;;;;;;;36.78;16.90;;;;;;;32.80;nan;98520.03;4872639;29;20093;-65
2023/10/03 05:09:18;;;;;;;41.38;17.75;;;;;;;33.28;nan;98519.25;4870526;29;20072;-66
2023/10/03 05:11:50;;;;;;;32.22;15.52;;;;;;;33.43;nan;98521.25;4875504;29;20056;-66
2023/10/03 05:14:20;;;;;;;28.57;15.53;;;;;;;32.98;nan;98519.47;4870864;29;20049;-65
2023/10/03 05:16:50;;;;;;;30.55;15.90;;;;;;;33.42;nan;98514.16;4871931;29;20057;-65
2023/10/03 05:19:21;;;;;;;31.05;15.27;;;;;;;33.52;nan;98513.69;4874762;29;20734;-66
2023/10/03 05:21:50;;;;;;;29.33;14.85;;;;;;;33.80;nan;98520.03;4870439;29;20508;-66
2023/10/03 05:24:19;;;;;;;33.03;16.27;;;;;;;33.90;nan;98512.44;4871190;29;20703;-66
2023/10/03 05:26:49;;;;;;;34.60;15.70;;;;;;;33.76;nan;98515.59;4880007;29;20056;-66
2023/10/03 05:29:18;;;;;;;29.80;15.32;;;;;;;33.63;nan;98509.31;4880524;29;20049;-66
2023/10/03 05:31:48;;;;;;;26.50;14.45;;;;;;;33.94;nan;98508.63;4880056;29;20064;-66
2023/10/03 05:34:20;;;;;;;29.17;14.88;;;;;;;34.02;nan;98517.88;4876093;29;20081;-66
2023/10/03 05:36:51;;;;;;;29.05;15.23;;;;;;;34.09;nan;98507.06;4873333;29;20053;-67
2023/10/03 05:39:23;;;;;;;34.25;14.52;;;;;;;33.82;nan;98512.22;4874549;29;20828;-66
2023/10/03 05:41:56;;;;;;;40.97;15.13;;;;;;;34.03;nan;98511.22;4872282;29;20479;-68
2023/10/03 05:44:25;;;;;;;28.58;13.90;;;;;;;33.53;nan;98508.97;4867655;29;20072;-68
2023/10/03 05:46:55;;;;;;;31.63;14.70;;;;;;;33.88;nan;98514.72;4882590;29;20112;-66
2023/10/03 05:49:25;;;;;;;31.50;13.82;;;;;;;33.69;nan;98507.13;4871437;29;20623;-65
2023/10/03 05:51:57;;;;;;;32.15;14.75;;;;;;;34.09;nan;98494.09;4879192;29;20057;-64
2023/10/03 05:54:27;;;;;;;32.73;15.13;;;;;;;34.15;nan;98495.47;4878726;29;20064;-63
2023/10/03 05:56:57;;;;;;;41.85;15.60;;;;;;;33.66;nan;98497.63;4872048;29;20760;-65
2023/10/03 05:59:27;;;;;;;36.28;14.90;;;;;;;33.81;nan;98491.38;4872002;29;20055;-66
2023/10/03 06:01:59;;;;;;;31.05;14.43;;;;;;;34.08;nan;98483.47;4881423;29;20060;-66
2023/10/03 06:04:30;;;;;;;45.63;14.80;;;;;;;33.95;nan;98479.97;4880411;29;20060;-64
2023/10/03 06:07:00;;;;;;;31.40;15.10;;;;;;;33.32;nan;98477.00;4879219;29;20076;-66
2023/10/03 06:09:29;;;;;;;27.65;14.88;;;;;;;33.28;nan;98475.31;4879625;29;20048;-67
2023/10/03 06:12:09;;;;;;;29.95;15.73;;;;;;;33.51;nan;98468.13;4874609;29;20355;-68
2023/10/03 06:14:44;;;;;;;37.90;15.20;;;;;;;33.63;nan;98465.34;4880195;29;20061;-67
2023/10/03 06:17:19;;;;;;;28.48;13.68;;;;;;;33.75;nan;98470.00;4874886;29;20113;-69
2023/10/03 06:19:50;;;;;;;39.50;15.82;;;;;;;33.49;nan;98461.38;4879912;29;20553;-70
2023/10/03 06:22:20;;;;;;;33.85;14.38;;;;;;;33.43;nan;98460.84;4870255;29;20049;-67
2023/10/03 06:24:50;;;;;;;35.47;14.45;;;;;;;32.86;nan;98445.38;4872944;29;20568;-67
2023/10/03 06:27:19;;;;;;;31.00;13.95;;;;;;;33.05;nan;98444.00;4872070;29;20060;-68
2023/10/03 06:29:49;;;;;;;29.38;12.82;;;;;;;33.19;nan;98437.00;4870780;29;20053;-68
2023/10/03 06:32:18;;;;;;;31.48;12.95;;;;;;;33.27;nan;98427.03;4871246;29;20053;-68
2023/10/03 06:34:47;;;;;;;29.85;12.95;;;;;;;32.97;nan;98426.50;4872135;29;20061;-67
2023/10/03 06:37:17;;;;;;;31.27;12.32;;;;;;;33.32;nan;98424.84;4871416;29;20072;-66
2023/10/03 06:39:47;;;;;;;26.17;13.55;;;;;;;33.12;nan;98419.47;4879028;29;20056;-67
2023/10/03 06:42:16;;;;;;;39.00;15.65;;;;;;;33.32;nan;98413.88;4874932;29;20144;-67
2023/10/03 06:44:46;;;;;;;33.35;14.15;;;;;;;33.09;nan;98425.69;4877414;29;20429;-68
2023/10/03 06:47:16;;;;;;;30.25;14.43;;;;;;;33.14;nan;98417.22;4876384;29;20136;-67
2023/10/03 06:49:45;;;;;;;36.47;13.55;;;;;;;33.00;nan;98408.53;4866676;29;20148;-65
2023/10/03 06:52:15;;;;;;;27.98;12.20;;;;;;;33.25;nan;98404.59;4869542;29;20064;-66
2023/10/03 06:54:47;;;;;;;28.02;11.07;;;;;;;33.00;nan;98403.84;4866137;29;20071;-66
2023/10/03 06:57:17;;;;;;;;;;;;;;;33.17;nan;98400.06;4864329;29;20116;-65
2023/10/03 06:59:46;;;;;;;27.42;11.18;;;;;;;33.24;nan;98397.50;4875962;29;19937;-66
2023/10/03 07:02:18;;;;;;;22.48;9.55;;;;;;;33.21;nan;98390.78;4875277;29;20143;-67
2023/10/03 07:04:47;;;;;;;25.67;10.60;;;;;;;33.28;nan;98381.97;4872269;29;20057;-66
2023/10/03 07:07:17;;;;;;;26.70;10.15;;;;;;;33.23;nan;98371.22;4869764;29;20053;-67
2023/10/03 07:09:46;;;;;;;27.88;10.63;;;;;;;33.21;nan;98368.00;4875735;29;20056;-67
2023/10/03 07:12:17;;;;;;;31.65;11.20;;;;;;;33.17;nan;98369.88;4876467;29;20067;-66
2023/10/03 07:14:48;;;;;;;24.05;9.45;;;;;;;33.39;nan;98366.56;4875523;29;20060;-66
2023/10/03 07:17:17;;;;;;;26.30;10.98;;;;;;;33.38;nan;98356.72;4863098;29;20060;-67
2023/10/03 07:19:48;;;;;;;21.52;10.60;;;;;;;33.38;nan;98354.78;4868883;29;20057;-67
2023/10/03 07:22:20;;;;;;;32.40;11.00;;;;;;;33.25;nan;98346.94;4875879;29;20133;-67
2023/10/03 07:24:51;;;;;;;27.30;9.93;;;;;;;33.25;nan;98349.69;4869236;29;20060;-67
2023/10/03 07:27:23;;;;;;;20.30;10.00;;;;;;;33.18;nan;98349.50;4871860;29;20441;-67
2023/10/03 07:29:52;;;;;;;21.05;9.43;;;;;;;33.19;nan;98337.38;4870095;29;20173;-66
2023/10/03 07:32:22;;;;;;;24.23;9.43;;;;;;;33.13;nan;98336.81;4874702;29;20434;-65
2023/10/03 07:34:52;;;;;;;19.52;8.73;;;;;;;32.93;nan;98321.31;4867716;29;20726;-66
2023/10/03 07:37:21;;;;;;;28.58;9.25;;;;;;;33.04;nan;98318.88;4867744;29;20608;-67
2023/10/03 07:39:50;;;;;;;24.92;8.95;;;;;;;33.01;nan;98317.66;4870767;29;20061;-66
2023/10/03 07:42:23;;;;;;;26.52;8.70;;;;;;;32.84;nan;98309.72;4867304;29;20057;-66
2023/10/03 07:44:52;;;;;;;30.25;8.90;;;;;;;32.82;nan;98304.56;4871053;29;20065;-66
2023/10/03 07:47:21;;;;;;;29.35;9.93;;;;;;;32.92;nan;98303.28;4866037;29;25538;-66
2023/10/03 07:49:52;;;;;;;22.05;9.75;;;;;;;33.01;nan;98292.13;4864081;29;20053;-66
2023/10/03 07:52:21;;;;;;;25.50;10.07;;;;;;;32.80;nan;98279.41;4870002;29;20076;-66
2023/10/03 07:54:56;;;;;;;23.33;10.07;;;;;;;32.88;nan;98291.41;4869633;29;20059;-67
2023/10/03 07:57:26;;;;;;;21.13;9.88;;;;;;;32.94;nan;98285.28;4866612;29;20055;-67
2023/10/03 07:59:56;;;;;;;24.30;10.90;;;;;;;32.76;nan;98283.19;4868049;29;20528;-67
2023/10/03 08:02:32;;;;;;;31.83;11.88;;;;;;;32.74;nan;98277.28;4868406;29;20913;-67
2023/10/03 08:05:02;;;;;;;28.25;10.82;;;;;;;32.80;nan;98284.09;4869840;29;20210;-68
2023/10/03 08:07:31;;;;;;;26.75;10.63;;;;;;;32.78;nan;98268.00;4869847;29;20061;-68
2023/10/03 08:10:03;;;;;;;24.23;10.77;;;;;;;32.84;nan;98263.84;4870271;29;20053;-67
2023/10/03 08:12:37;;;;;;;22.15;10.75;;;;;;;32.83;nan;98266.94;4869392;29;20132;-67
2023/10/03 08:15:20;;;;;;;28.85;11.98;;;;;;;32.84;nan;98260.31;4869175;29;20052;-67
2023/10/03 08:17:53;;;;;;;25.58;11.82;;;;;;;32.80;nan;98251.97;4869100;29;20497;-67
2023/10/03 08:20:23;;;;;;;36.38;12.55;;;;;;;32.81;nan;98256.31;4864579;29;20071;-67
2023/10/03 08:22:55;;;;;;;26.75;10.90;;;;;;;32.79;nan;98249.59;4865980;29;20113;-67
2023/10/03 08:25:25;;;;;;;28.00;9.80;;;;;;;32.76;nan;98239.28;4870480;29;20072;-67
2023/10/03 08:27:55;;;;;;;30.75;9.43;;;;;;;32.61;nan;98232.59;4868704;29;20888;-68
2023/10/03 08:30:30;;;;;;;27.05;9.88;;;;;;;32.62;nan;98230.66;4866418;29;20057;-67
2023/10/03 08:33:04;;;;;;;16.67;8.73;;;;;;;32.68;nan;98229.28;4872433;29;20049;-67
2023/10/03 08:35:40;;;;;;;17.98;8.90;;;;;;;32.62;nan;98228.72;4869877;29;20201;-69
2023/10/03 08:38:13;;;;;;;28.63;9.07;;;;;;;32.62;nan;98214.22;4860957;29;20057;-67
2023/10/03 08:40:50;;;;;;;23.23;9.73;;;;;;;32.68;nan;98221.84;4867325;29;20061;-67
2023/10/03 08:43:27;;;;;;;21.67;9.77;;;;;;;32.66;nan;98215.13;4867084;29;20053;-68
2023/10/03 08:46:01;;;;;;;20.45;8.40;;;;;;;32.65;nan;98213.53;4864360;29;20378;-68
2023/10/03 08:48:33;;;;;;;30.10;10.07;;;;;;;32.58;nan;98210.53;4864640;29;20052;-68
2023/10/03 08:51:04;;;;;;;22.27;8.82;;;;;;;32.52;nan;98210.81;4869132;29;20056;-68
2023/10/03 08:53:33;;;;;;;31.67;9.93;;;;;;;32.58;nan;98202.31;4873660;29;20041;-68
2023/10/03 08:56:08;;;;;;;21.35;7.85;;;;;;;32.52;nan;98208.06;4869942;29;20054;-68
2023/10/03 08:58:43;;;;;;;24.10;8.35;;;;;;;32.59;nan;98201.97;4870537;29;20049;-67
2023/10/03 09:01:19;;;;;;;22.38;8.88;;;;;;;32.53;nan;98184.16;4871263;29;20048;-68
2023/10/03 09:03:58;;;;;;;24.10;8.20;;;;;;;32.61;nan;98193.41;4871854;29;20056;-68
2023/10/03 09:06:28;;;;;;;21.58;9.20;;;;;;;32.54;nan;98183.03;4872584;29;20137;-67
2023/10/03 09:09:19;;;;;;;16.83;7.68;;;;;;;32.51;nan;98181.78;4873664;29;20053;-68
2023/10/03 09:11:51;;;;;;;21.35;8.73;;;;;;;32.44;nan;98176.09;4867092;29;20060;-67
2023/10/03 09:14:20;;;;;;;23.13;7.50;;;;;;;32.53;nan;98178.66;4870771;29;20061;-67
2023/10/03 09:16:54;;;;;;;20.35;8.70;;;;;;;32.58;nan;98169.41;4872272;29;20057;-67
2023/10/03 09:19:45;;;;;;;26.10;8.65;;;;;;;32.49;nan;98164.06;4870735;29;20481;-68
2023/10/03 09:22:30;;;;;;;29.35;8.88;;;;;;;32.51;nan;98164.53;4870645;29;20049;-68
2023/10/03 09:25:00;;;;;;;29.27;9.77;;;;;;;32.52;nan;98164.19;4869318;29;20138;-68
2023/10/03 09:27:30;;;;;;;22.65;8.98;;;;;;;32.48;nan;98159.75;4872543;29;20541;-68
2023/10/03 09:30:09;;;;;;;19.98;8.38;;;;;;;32.48;nan;98162.50;4871562;29;20437;-67
2023/10/03 09:32:39;;;;;;;23.10;9.07;;;;;;;32.46;nan;98160.09;4870832;29;20053;-68
2023/10/03 09:35:12;;;;;;;30.33;10.75;;;;;;;32.38;nan;98162.97;4872816;29;20116;-69
2023/10/03 09:37:48;;;;;;;25.27;10.90;;;;;;;32.37;nan;98153.16;4869433;29;20485;-68
2023/10/03 09:40:17;;;;;;;25.23;8.63;;;;;;;32.31;nan;98149.84;4872096;29;20129;-68
2023/10/03 09:42:50;;;;;;;19.58;9.13;;;;;;;32.28;nan;98142.34;4869083;29;20068;-67
2023/10/03 09:45:31;;;;;;;22.88;9.45;;;;;;;32.29;nan;98132.19;4871486;29;20068;-68
2023/10/03 09:48:05;;;;;;;31.65;10.98;;;;;;;32.20;nan;98134.25;4876111;29;20488;-68
2023/10/03 09:50:36;;;;;;;24.13;9.13;;;;;;;32.22;nan;98123.75;4876143;29;20071;-68
2023/10/03 09:53:07;;;;;;;24.20;9.65;;;;;;;32.20;nan;98120.56;4868142;29;20060;-68
2023/10/03 09:55:46;;;;;;;23.30;9.77;;;;;;;32.16;nan;98116.94;4862382;29;20060;-67
2023/10/03 09:58:24;;;;;;;21.75;9.25;;;;;;;32.14;nan;98111.78;4872536;29;20068;-67
2023/10/03 10:00:55;;;;;;;21.50;10.05;;;;;;;32.07;nan;98106.88;4872654;29;20045;-67
2023/10/03 10:03:46;;;;;;;21.40;9.05;;;;;;;32.08;nan;98108.47;4871864;29;20060;-67
2023/10/03 10:06:17;;;;;;;20.85;9.98;;;;;;;32.07;nan;98108.81;4865105;29;20060;-68
2023/10/03 10:08:58;;;;;;;27.05;9.82;;;;;;;32.06;nan;98105.28;4864011;29;20048;-68
2023/10/03 10:11:30;;;;;;;27.65;9.48;;;;;;;32.05;nan;98109.16;4867846;29;20053;-67
2023/10/03 10:14:20;;;;;;;24.58;10.95;;;;;;;31.98;nan;98111.69;4864222;29;20088;-67
2023/10/03 10:17:05;;;;;;;34.08;10.85;;;;;;;31.96;nan;98111.25;4872165;29;20468;-67
2023/10/03 10:20:13;;;;;;;23.40;10.02;;;;;;;31.89;nan;98091.88;4870218;29;20059;-67
2023/10/03 10:23:03;;;;;;;27.30;11.00;;;;;;;31.82;nan;98108.06;4830763;29;20072;-67
2023/10/03 10:25:41;;;;;;;32.60;10.77;;;;;;;31.84;nan;98108.53;4866501;29;20145;-67
2023/10/03 10:28:17;;;;;;;25.35;11.82;;;;;;;31.81;nan;98105.69;4871016;29;20063;-66
2023/10/03 10:31:11;;;;;;;25.95;10.73;;;;;;;31.80;nan;98101.34;4860240;29;20060;-68
2023/10/03 10:33:41;;;;;;;19.20;10.45;;;;;;;31.76;nan;98100.47;4864957;29;20056;-68
2023/10/03 10:36:10;;;;;;;30.88;12.38;;;;;;;31.72;nan;98091.34;4868234;29;20053;-68
2023/10/03 10:38:40;;;;;;;22.85;10.15;;;;;;;31.67;nan;98094.31;4868427;29;20198;-67
2023/10/03 10:41:12;;;;;;;27.17;11.10;;;;;;;31.61;nan;98085.53;4866511;29;20050;-68
2023/10/03 10:44:06;;;;;;;24.35;10.93;;;;;;;31.53;nan;98086.44;4867156;29;20320;-68
2023/10/03 10:46:46;;;;;;;23.75;11.20;;;;;;;31.48;nan;98092.13;4859726;29;20045;-68
2023/10/03 10:49:44;;;;;;;29.67;11.48;;;;;;;31.47;nan;98091.34;4869308;29;20056;-67
2023/10/03 10:52:13;;;;;;;29.20;12.20;;;;;;;31.45;nan;98084.63;4856434;29;20044;-68
2023/10/03 10:54:44;;;;;;;31.67;12.73;;;;;;;31.48;nan;98087.47;4869329;29;20053;-67
2023/10/03 10:57:21;;;;;;;22.02;9.63;;;;;;;31.49;nan;98089.06;4867954;29;20052;-68
2023/10/03 10:59:53;;;;;;;30.70;11.95;;;;;;;31.49;nan;98088.25;4869405;29;20053;-69
2023/10/03 11:02:33;;;;;;;26.80;11.57;;;;;;;31.40;nan;98082.09;4871118;29;20072;-67
2023/10/03 11:05:10;;;;;;;25.80;10.85;;;;;;;31.41;nan;98091.94;4870248;29;20053;-68
2023/10/03 11:07:53;;;;;;;28.48;10.85;;;;;;;31.33;nan;98096.38;4869936;29;20588;-66
2023/10/03 11:10:23;;;;;;;28.98;11.80;;;;;;;31.35;nan;98093.28;4877275;29;20048;-68
2023/10/03 11:13:07;;;;;;;24.20;11.05;;;;;;;31.33;nan;98090.13;4869352;29;20053;-69
2023/10/03 11:15:37;;;;;;;27.67;11.68;;;;;;;31.34;nan;98094.41;4871716;29;20053;-68
2023/10/03 11:18:07;;;;;;;35.80;12.50;;;;;;;31.28;nan;98098.53;4868612;29;20124;-67
2023/10/03 11:20:36;;;;;;;32.08;11.15;;;;;;;31.18;nan;98095.13;4874243;29;20151;-67
2023/10/03 11:23:16;;;;;;;26.10;11.48;;;;;;;31.19;nan;98110.41;4875286;29;20056;-66
2023/10/03 11:26:00;;;;;;;20.73;10.27;;;;;;;31.20;nan;98101.03;4872998;29;20057;-66
2023/10/03 11:28:43;;;;;;;29.00;11.23;;;;;;;31.13;nan;98108.22;4870172;29;20470;-68
2023/10/03 11:31:13;;;;;;;30.35;12.88;;;;;;;31.08;nan;98098.31;4867870;29;20049;-67
2023/10/03 11:33:47;;;;;;;27.25;11.93;;;;;;;31.04;nan;98097.41;4869976;29;20056;-67
2023/10/03 11:36:16;;;;;;;31.15;12.20;;;;;;;31.04;nan;98097.41;4873364;29;20128;-67
2023/10/03 11:38:51;;;;;;;31.60;12.63;;;;;;;31.03;nan;98097.72;4868679;29;20153;-67
2023/10/03 11:41:33;;;;;;;28.80;11.38;;;;;;;30.99;nan;98100.31;4875396;29;20063;-68
2023/10/03 11:44:04;;;;;;;31.40;11.27;;;;;;;30.97;nan;98096.34;4869835;29;20063;-67
2023/10/03 11:46:39;;;;;;;32.95;13.18;;;;;;;30.90;nan;98101.56;4870214;29;20160;-67
2023/10/03 11:49:09;;;;;;;30.17;12.05;;;;;;;30.90;nan;98098.81;4874139;29;20060;-68
2023/10/03 11:51:42;;;;;;;36.92;12.93;;;;;;;30.81;nan;98096.19;4875294;29;20085;-68
2023/10/03 11:54:15;;;;;;;29.67;12.23;;;;;;;30.75;nan;98103.03;4878934;29;20044;-68
2023/10/03 11:56:48;;;;;;;25.27;12.57;;;;;;;30.73;nan;98100.63;4876980;29;20057;-68
2023/10/03 11:59:17;;;;;;;33.95;11.93;;;;;;;30.64;nan;98094.47;4892281;29;20045;-68
2023/10/03 12:01:56;;;;;;;25.15;12.27;;;;;;;30.53;nan;98092.50;4876419;29;20053;-68
2023/10/03 12:04:26;;;;;;;29.00;12.07;;;;;;;30.50;nan;98098.63;4877651;29;20654;-68
2023/10/03 12:06:55;;;;;;;36.63;12.50;;;;;;;30.45;nan;98096.13;4877066;29;20056;-67
2023/10/03 12:09:26;;;;;;;27.83;11.23;;;;;;;30.36;nan;98089.91;4881258;29;20056;-68
2023/10/03 12:11:55;;;;;;;27.50;11.60;;;;;;;30.32;nan;98093.31;4874163;29;20069;-68